sensor_id;sensor_type;location;lat;lon;timestamp;P1;durP1;ratioP1;P2;durP2;ratioP2
30533;SDS011;73248;52.398;9.814;2024-02-21T00:01:35;34.85;;;13.52;;
30533;SDS011;73248;52.398;9.814;2024-02-21T00:04:01;34.38;;;13.13;;
30533;SDS011;73248;52.398;9.814;2024-02-21T00:06:26;31.05;;;13.13;;
30533;SDS011;73248;52.398;9.814;2024-02-21T00:08:52;36.70;;;13.10;;
30533;SDS011;73248;52.398;9.814;2024-02-21T00:11:18;33.55;;;12.30;;
30533;SDS011;73248;52.398;9.814;2024-02-21T00:13:43;40.53;;;14.13;;
30533;SDS011;73248;52.398;9.814;2024-02-21T00:16:09;31.63;;;12.75;;
30533;SDS011;73248;52.398;9.814;2024-02-21T00:18:35;34.70;;;13.23;;
30533;SDS011;73248;52.398;9.814;2024-02-21T00:21:01;36.45;;;13.10;;
30533;SDS011;73248;52.398;9.814;2024-02-21T00:23:28;32.92;;;13.18;;
30533;SDS011;73248;52.398;9.814;2024-02-21T00:25:53;37.25;;;13.60;;
30533;SDS011;73248;52.398;9.814;2024-02-21T00:28:19;39.17;;;13.43;;
30533;SDS011;73248;52.398;9.814;2024-02-21T00:30:45;37.20;;;14.15;;
30533;SDS011;73248;52.398;9.814;2024-02-21T00:33:13;49.60;;;14.63;;
30533;SDS011;73248;52.398;9.814;2024-02-21T00:35:38;32.78;;;13.63;;
30533;SDS011;73248;52.398;9.814;2024-02-21T00:38:04;37.33;;;13.60;;
30533;SDS011;73248;52.398;9.814;2024-02-21T00:40:30;34.08;;;13.98;;
30533;SDS011;73248;52.398;9.814;2024-02-21T00:42:56;37.97;;;14.10;;
30533;SDS011;73248;52.398;9.814;2024-02-21T00:45:21;35.42;;;12.80;;
30533;SDS011;73248;52.398;9.814;2024-02-21T00:47:47;35.47;;;12.85;;
30533;SDS011;73248;52.398;9.814;2024-02-21T00:50:12;36.30;;;14.52;;
30533;SDS011;73248;52.398;9.814;2024-02-21T00:52:38;32.40;;;13.35;;
30533;SDS011;73248;52.398;9.814;2024-02-21T00:55:04;35.65;;;15.15;;
30533;SDS011;73248;52.398;9.814;2024-02-21T00:57:30;32.17;;;13.15;;
30533;SDS011;73248;52.398;9.814;2024-02-21T00:59:56;33.33;;;13.80;;
30533;SDS011;73248;52.398;9.814;2024-02-21T01:02:22;40.60;;;13.48;;
30533;SDS011;73248;52.398;9.814;2024-02-21T01:04:48;35.97;;;13.90;;
30533;SDS011;73248;52.398;9.814;2024-02-21T01:07:13;37.13;;;14.68;;
30533;SDS011;73248;52.398;9.814;2024-02-21T01:09:39;34.22;;;13.57;;
30533;SDS011;73248;52.398;9.814;2024-02-21T01:12:05;32.15;;;14.45;;
30533;SDS011;73248;52.398;9.814;2024-02-21T01:14:30;34.03;;;14.05;;
30533;SDS011;73248;52.398;9.814;2024-02-21T01:16:56;30.05;;;14.15;;
30533;SDS011;73248;52.398;9.814;2024-02-21T01:19:22;41.38;;;13.75;;
30533;SDS011;73248;52.398;9.814;2024-02-21T01:21:47;47.33;;;15.40;;
30533;SDS011;73248;52.398;9.814;2024-02-21T01:24:13;33.22;;;14.57;;
30533;SDS011;73248;52.398;9.814;2024-02-21T01:26:39;34.95;;;14.60;;
30533;SDS011;73248;52.398;9.814;2024-02-21T01:29:05;33.35;;;14.00;;
30533;SDS011;73248;52.398;9.814;2024-02-21T01:31:31;36.08;;;14.18;;
30533;SDS011;73248;52.398;9.814;2024-02-21T01:33:56;34.72;;;13.50;;
30533;SDS011;73248;52.398;9.814;2024-02-21T01:36:23;35.00;;;14.77;;
30533;SDS011;73248;52.398;9.814;2024-02-21T01:38:48;31.75;;;14.50;;
30533;SDS011;73248;52.398;9.814;2024-02-21T01:41:14;44.10;;;14.57;;
30533;SDS011;73248;52.398;9.814;2024-02-21T01:43:41;37.70;;;14.45;;
30533;SDS011;73248;52.398;9.814;2024-02-21T01:46:07;35.65;;;14.80;;
30533;SDS011;73248;52.398;9.814;2024-02-21T01:48:32;37.53;;;14.80;;
30533;SDS011;73248;52.398;9.814;2024-02-21T01:50:59;35.85;;;15.93;;
30533;SDS011;73248;52.398;9.814;2024-02-21T01:53:27;35.65;;;15.40;;
30533;SDS011;73248;52.398;9.814;2024-02-21T01:55:55;38.30;;;15.38;;
30533;SDS011;73248;52.398;9.814;2024-02-21T01:58:21;37.20;;;14.57;;
30533;SDS011;73248;52.398;9.814;2024-02-21T02:00:47;39.45;;;15.38;;
30533;SDS011;73248;52.398;9.814;2024-02-21T02:03:13;47.60;;;15.10;;
30533;SDS011;73248;52.398;9.814;2024-02-21T02:05:45;35.78;;;14.48;;
30533;SDS011;73248;52.398;9.814;2024-02-21T02:08:15;31.88;;;14.48;;
30533;SDS011;73248;52.398;9.814;2024-02-21T02:10:41;28.67;;;14.30;;
30533;SDS011;73248;52.398;9.814;2024-02-21T02:13:08;45.13;;;14.23;;
30533;SDS011;73248;52.398;9.814;2024-02-21T02:15:37;32.10;;;13.45;;
30533;SDS011;73248;52.398;9.814;2024-02-21T02:18:06;32.05;;;14.30;;
30533;SDS011;73248;52.398;9.814;2024-02-21T02:20:32;41.60;;;13.98;;
30533;SDS011;73248;52.398;9.814;2024-02-21T02:22:59;36.20;;;13.63;;
30533;SDS011;73248;52.398;9.814;2024-02-21T02:25:25;30.48;;;13.98;;
30533;SDS011;73248;52.398;9.814;2024-02-21T02:27:52;38.85;;;14.43;;
30533;SDS011;73248;52.398;9.814;2024-02-21T02:30:19;43.83;;;14.02;;
30533;SDS011;73248;52.398;9.814;2024-02-21T02:32:45;34.67;;;15.10;;
30533;SDS011;73248;52.398;9.814;2024-02-21T02:35:13;29.30;;;14.02;;
30533;SDS011;73248;52.398;9.814;2024-02-21T02:37:39;32.13;;;14.35;;
30533;SDS011;73248;52.398;9.814;2024-02-21T02:40:06;33.67;;;14.60;;
30533;SDS011;73248;52.398;9.814;2024-02-21T02:42:32;36.75;;;14.95;;
30533;SDS011;73248;52.398;9.814;2024-02-21T02:44:58;38.17;;;15.18;;
30533;SDS011;73248;52.398;9.814;2024-02-21T02:47:23;36.22;;;15.82;;
30533;SDS011;73248;52.398;9.814;2024-02-21T02:49:49;31.35;;;13.73;;
30533;SDS011;73248;52.398;9.814;2024-02-21T02:52:16;34.03;;;14.48;;
30533;SDS011;73248;52.398;9.814;2024-02-21T02:54:43;31.85;;;15.35;;
30533;SDS011;73248;52.398;9.814;2024-02-21T02:57:08;36.78;;;15.48;;
30533;SDS011;73248;52.398;9.814;2024-02-21T02:59:34;32.75;;;15.70;;
30533;SDS011;73248;52.398;9.814;2024-02-21T03:02:00;29.10;;;14.35;;
30533;SDS011;73248;52.398;9.814;2024-02-21T03:04:26;29.20;;;14.82;;
30533;SDS011;73248;52.398;9.814;2024-02-21T03:06:51;32.00;;;14.55;;
30533;SDS011;73248;52.398;9.814;2024-02-21T03:09:17;31.58;;;14.40;;
30533;SDS011;73248;52.398;9.814;2024-02-21T03:11:43;34.50;;;14.63;;
30533;SDS011;73248;52.398;9.814;2024-02-21T03:14:09;30.05;;;14.15;;
30533;SDS011;73248;52.398;9.814;2024-02-21T03:16:35;33.17;;;14.98;;
30533;SDS011;73248;52.398;9.814;2024-02-21T03:19:02;35.95;;;15.88;;
30533;SDS011;73248;52.398;9.814;2024-02-21T03:21:28;33.05;;;14.45;;
30533;SDS011;73248;52.398;9.814;2024-02-21T03:23:54;36.65;;;14.88;;
30533;SDS011;73248;52.398;9.814;2024-02-21T03:26:19;29.55;;;14.07;;
30533;SDS011;73248;52.398;9.814;2024-02-21T03:28:45;31.65;;;14.32;;
30533;SDS011;73248;52.398;9.814;2024-02-21T03:31:11;42.75;;;14.35;;
30533;SDS011;73248;52.398;9.814;2024-02-21T03:33:38;31.48;;;14.68;;
30533;SDS011;73248;52.398;9.814;2024-02-21T03:36:12;31.65;;;13.48;;
30533;SDS011;73248;52.398;9.814;2024-02-21T03:38:38;32.67;;;14.13;;
30533;SDS011;73248;52.398;9.814;2024-02-21T03:41:04;34.75;;;13.93;;
30533;SDS011;73248;52.398;9.814;2024-02-21T03:43:30;31.98;;;14.00;;
30533;SDS011;73248;52.398;9.814;2024-02-21T03:45:55;31.45;;;13.63;;
30533;SDS011;73248;52.398;9.814;2024-02-21T03:48:21;28.98;;;13.20;;
30533;SDS011;73248;52.398;9.814;2024-02-21T03:50:46;31.70;;;14.27;;
30533;SDS011;73248;52.398;9.814;2024-02-21T03:53:12;33.13;;;14.82;;
30533;SDS011;73248;52.398;9.814;2024-02-21T03:55:37;30.92;;;13.82;;
30533;SDS011;73248;52.398;9.814;2024-02-21T03:58:03;31.10;;;13.82;;
30533;SDS011;73248;52.398;9.814;2024-02-21T04:00:29;32.30;;;13.18;;
30533;SDS011;73248;52.398;9.814;2024-02-21T04:02:54;30.35;;;14.18;;
30533;SDS011;73248;52.398;9.814;2024-02-21T04:05:20;29.88;;;13.90;;
30533;SDS011;73248;52.398;9.814;2024-02-21T04:07:46;26.10;;;13.10;;
30533;SDS011;73248;52.398;9.814;2024-02-21T04:10:12;33.45;;;13.38;;
30533;SDS011;73248;52.398;9.814;2024-02-21T04:12:37;29.58;;;13.30;;
30533;SDS011;73248;52.398;9.814;2024-02-21T04:15:03;29.50;;;13.68;;
30533;SDS011;73248;52.398;9.814;2024-02-21T04:17:29;32.88;;;14.50;;
30533;SDS011;73248;52.398;9.814;2024-02-21T04:20:02;29.73;;;14.45;;
30533;SDS011;73248;52.398;9.814;2024-02-21T04:22:30;36.22;;;14.68;;
30533;SDS011;73248;52.398;9.814;2024-02-21T04:24:57;35.65;;;14.60;;
30533;SDS011;73248;52.398;9.814;2024-02-21T04:27:24;30.65;;;13.68;;
30533;SDS011;73248;52.398;9.814;2024-02-21T04:29:50;30.45;;;13.70;;
30533;SDS011;73248;52.398;9.814;2024-02-21T04:32:15;33.42;;;13.73;;
30533;SDS011;73248;52.398;9.814;2024-02-21T04:34:41;33.92;;;14.02;;
30533;SDS011;73248;52.398;9.814;2024-02-21T04:37:07;30.92;;;13.57;;
30533;SDS011;73248;52.398;9.814;2024-02-21T04:39:32;32.40;;;13.95;;
30533;SDS011;73248;52.398;9.814;2024-02-21T04:41:58;35.45;;;14.45;;
30533;SDS011;73248;52.398;9.814;2024-02-21T04:44:23;40.00;;;14.35;;
30533;SDS011;73248;52.398;9.814;2024-02-21T04:46:49;34.42;;;14.70;;
30533;SDS011;73248;52.398;9.814;2024-02-21T04:49:15;29.52;;;14.25;;
30533;SDS011;73248;52.398;9.814;2024-02-21T04:51:41;39.03;;;13.88;;
30533;SDS011;73248;52.398;9.814;2024-02-21T04:54:06;27.13;;;13.57;;
30533;SDS011;73248;52.398;9.814;2024-02-21T04:56:32;36.25;;;15.32;;
30533;SDS011;73248;52.398;9.814;2024-02-21T04:58:57;30.98;;;14.43;;
30533;SDS011;73248;52.398;9.814;2024-02-21T05:01:23;38.95;;;16.73;;
30533;SDS011;73248;52.398;9.814;2024-02-21T05:03:49;35.15;;;15.02;;
30533;SDS011;73248;52.398;9.814;2024-02-21T05:06:14;33.50;;;14.80;;
30533;SDS011;73248;52.398;9.814;2024-02-21T05:08:40;32.78;;;15.07;;
30533;SDS011;73248;52.398;9.814;2024-02-21T05:11:06;40.75;;;14.93;;
30533;SDS011;73248;52.398;9.814;2024-02-21T05:13:32;35.25;;;16.35;;
30533;SDS011;73248;52.398;9.814;2024-02-21T05:15:57;39.75;;;16.85;;
30533;SDS011;73248;52.398;9.814;2024-02-21T05:18:26;37.03;;;15.57;;
30533;SDS011;73248;52.398;9.814;2024-02-21T05:20:52;36.38;;;15.88;;
30533;SDS011;73248;52.398;9.814;2024-02-21T05:23:17;34.42;;;16.67;;
30533;SDS011;73248;52.398;9.814;2024-02-21T05:25:43;33.95;;;14.98;;
30533;SDS011;73248;52.398;9.814;2024-02-21T05:28:09;37.38;;;15.43;;
30533;SDS011;73248;52.398;9.814;2024-02-21T05:30:34;37.85;;;16.17;;
30533;SDS011;73248;52.398;9.814;2024-02-21T05:33:03;32.22;;;15.00;;
30533;SDS011;73248;52.398;9.814;2024-02-21T05:35:30;40.65;;;15.98;;
30533;SDS011;73248;52.398;9.814;2024-02-21T05:37:55;35.70;;;15.55;;
30533;SDS011;73248;52.398;9.814;2024-02-21T05:40:21;38.70;;;16.70;;
30533;SDS011;73248;52.398;9.814;2024-02-21T05:42:47;34.72;;;14.65;;
30533;SDS011;73248;52.398;9.814;2024-02-21T05:45:12;32.03;;;14.68;;
30533;SDS011;73248;52.398;9.814;2024-02-21T05:47:39;31.10;;;15.13;;
30533;SDS011;73248;52.398;9.814;2024-02-21T05:50:05;38.03;;;15.32;;
30533;SDS011;73248;52.398;9.814;2024-02-21T05:52:31;26.95;;;14.82;;
30533;SDS011;73248;52.398;9.814;2024-02-21T05:54:56;32.63;;;14.05;;
30533;SDS011;73248;52.398;9.814;2024-02-21T05:57:22;36.47;;;15.18;;
30533;SDS011;73248;52.398;9.814;2024-02-21T05:59:48;36.67;;;14.98;;
30533;SDS011;73248;52.398;9.814;2024-02-21T06:02:13;27.63;;;14.98;;
30533;SDS011;73248;52.398;9.814;2024-02-21T06:04:39;32.75;;;15.55;;
30533;SDS011;73248;52.398;9.814;2024-02-21T06:07:05;32.25;;;16.00;;
30533;SDS011;73248;52.398;9.814;2024-02-21T06:09:30;34.15;;;16.13;;
30533;SDS011;73248;52.398;9.814;2024-02-21T06:11:57;33.40;;;16.33;;
30533;SDS011;73248;52.398;9.814;2024-02-21T06:14:22;35.00;;;14.80;;
30533;SDS011;73248;52.398;9.814;2024-02-21T06:16:48;29.63;;;15.10;;
30533;SDS011;73248;52.398;9.814;2024-02-21T06:19:13;32.78;;;15.85;;
30533;SDS011;73248;52.398;9.814;2024-02-21T06:21:39;32.08;;;16.42;;
30533;SDS011;73248;52.398;9.814;2024-02-21T06:24:05;42.03;;;16.98;;
30533;SDS011;73248;52.398;9.814;2024-02-21T06:26:30;37.42;;;15.82;;
30533;SDS011;73248;52.398;9.814;2024-02-21T06:28:56;32.53;;;15.85;;
30533;SDS011;73248;52.398;9.814;2024-02-21T06:31:22;33.08;;;15.43;;
30533;SDS011;73248;52.398;9.814;2024-02-21T06:33:47;35.50;;;15.63;;
30533;SDS011;73248;52.398;9.814;2024-02-21T06:36:13;30.98;;;14.80;;
30533;SDS011;73248;52.398;9.814;2024-02-21T06:38:39;42.00;;;16.23;;
30533;SDS011;73248;52.398;9.814;2024-02-21T06:41:04;32.72;;;15.50;;
30533;SDS011;73248;52.398;9.814;2024-02-21T06:43:30;29.65;;;15.45;;
30533;SDS011;73248;52.398;9.814;2024-02-21T06:45:56;32.53;;;14.98;;
30533;SDS011;73248;52.398;9.814;2024-02-21T06:48:22;33.28;;;14.35;;
30533;SDS011;73248;52.398;9.814;2024-02-21T06:50:47;29.42;;;15.27;;
30533;SDS011;73248;52.398;9.814;2024-02-21T06:53:13;32.92;;;14.73;;
30533;SDS011;73248;52.398;9.814;2024-02-21T06:55:38;31.27;;;14.05;;
30533;SDS011;73248;52.398;9.814;2024-02-21T06:58:04;30.42;;;14.85;;
30533;SDS011;73248;52.398;9.814;2024-02-21T07:00:30;26.73;;;14.40;;
30533;SDS011;73248;52.398;9.814;2024-02-21T07:02:55;31.38;;;14.82;;
30533;SDS011;73248;52.398;9.814;2024-02-21T07:05:21;31.63;;;14.65;;
30533;SDS011;73248;52.398;9.814;2024-02-21T07:07:47;29.20;;;13.50;;
30533;SDS011;73248;52.398;9.814;2024-02-21T07:10:12;40.47;;;14.82;;
30533;SDS011;73248;52.398;9.814;2024-02-21T07:12:38;35.95;;;15.85;;
30533;SDS011;73248;52.398;9.814;2024-02-21T07:15:07;35.03;;;15.43;;
30533;SDS011;73248;52.398;9.814;2024-02-21T07:17:32;32.20;;;14.85;;
30533;SDS011;73248;52.398;9.814;2024-02-21T07:19:58;34.42;;;14.48;;
30533;SDS011;73248;52.398;9.814;2024-02-21T07:22:24;30.42;;;14.45;;
30533;SDS011;73248;52.398;9.814;2024-02-21T07:24:50;43.38;;;15.90;;
30533;SDS011;73248;52.398;9.814;2024-02-21T07:27:16;33.30;;;13.10;;
30533;SDS011;73248;52.398;9.814;2024-02-21T07:29:41;32.80;;;14.98;;
30533;SDS011;73248;52.398;9.814;2024-02-21T07:32:07;27.50;;;14.43;;
30533;SDS011;73248;52.398;9.814;2024-02-21T07:34:33;31.92;;;13.15;;
30533;SDS011;73248;52.398;9.814;2024-02-21T07:36:58;28.88;;;13.60;;
30533;SDS011;73248;52.398;9.814;2024-02-21T07:39:24;29.40;;;14.00;;
30533;SDS011;73248;52.398;9.814;2024-02-21T07:41:50;29.65;;;14.30;;
30533;SDS011;73248;52.398;9.814;2024-02-21T07:44:15;30.67;;;13.10;;
30533;SDS011;73248;52.398;9.814;2024-02-21T07:46:41;25.05;;;12.90;;
30533;SDS011;73248;52.398;9.814;2024-02-21T07:49:06;31.83;;;13.68;;
30533;SDS011;73248;52.398;9.814;2024-02-21T07:51:32;22.20;;;12.57;;
30533;SDS011;73248;52.398;9.814;2024-02-21T07:53:58;23.60;;;12.82;;
30533;SDS011;73248;52.398;9.814;2024-02-21T07:56:23;29.08;;;13.30;;
30533;SDS011;73248;52.398;9.814;2024-02-21T07:58:52;27.77;;;12.30;;
30533;SDS011;73248;52.398;9.814;2024-02-21T08:01:21;26.05;;;12.75;;
30533;SDS011;73248;52.398;9.814;2024-02-21T08:03:46;34.92;;;13.88;;
30533;SDS011;73248;52.398;9.814;2024-02-21T08:06:12;22.92;;;11.88;;
30533;SDS011;73248;52.398;9.814;2024-02-21T08:08:39;31.92;;;12.20;;
30533;SDS011;73248;52.398;9.814;2024-02-21T08:11:05;23.25;;;11.90;;
30533;SDS011;73248;52.398;9.814;2024-02-21T08:13:31;28.52;;;12.93;;
30533;SDS011;73248;52.398;9.814;2024-02-21T08:15:57;26.35;;;12.27;;
30533;SDS011;73248;52.398;9.814;2024-02-21T08:18:22;32.55;;;12.52;;
30533;SDS011;73248;52.398;9.814;2024-02-21T08:20:48;29.77;;;12.20;;
30533;SDS011;73248;52.398;9.814;2024-02-21T08:23:17;26.65;;;12.18;;
30533;SDS011;73248;52.398;9.814;2024-02-21T08:25:44;28.88;;;11.88;;
30533;SDS011;73248;52.398;9.814;2024-02-21T08:28:09;27.70;;;12.20;;
30533;SDS011;73248;52.398;9.814;2024-02-21T08:30:35;26.38;;;10.63;;
30533;SDS011;73248;52.398;9.814;2024-02-21T08:33:00;27.60;;;11.25;;
30533;SDS011;73248;52.398;9.814;2024-02-21T08:35:26;26.55;;;11.82;;
30533;SDS011;73248;52.398;9.814;2024-02-21T08:37:51;27.95;;;11.27;;
30533;SDS011;73248;52.398;9.814;2024-02-21T08:40:17;22.50;;;11.15;;
30533;SDS011;73248;52.398;9.814;2024-02-21T08:42:45;23.70;;;11.15;;
30533;SDS011;73248;52.398;9.814;2024-02-21T08:45:11;26.65;;;11.43;;
30533;SDS011;73248;52.398;9.814;2024-02-21T08:47:40;27.00;;;10.25;;
30533;SDS011;73248;52.398;9.814;2024-02-21T08:50:06;31.85;;;11.82;;
30533;SDS011;73248;52.398;9.814;2024-02-21T08:52:32;28.30;;;10.45;;
30533;SDS011;73248;52.398;9.814;2024-02-21T08:54:57;23.25;;;10.10;;
30533;SDS011;73248;52.398;9.814;2024-02-21T08:57:23;29.67;;;9.82;;
30533;SDS011;73248;52.398;9.814;2024-02-21T08:59:49;18.70;;;9.10;;
30533;SDS011;73248;52.398;9.814;2024-02-21T09:02:14;21.58;;;9.55;;
30533;SDS011;73248;52.398;9.814;2024-02-21T09:04:41;19.48;;;10.00;;
30533;SDS011;73248;52.398;9.814;2024-02-21T09:07:07;28.80;;;9.73;;
30533;SDS011;73248;52.398;9.814;2024-02-21T09:09:32;28.70;;;9.07;;
30533;SDS011;73248;52.398;9.814;2024-02-21T09:11:58;22.42;;;8.73;;
30533;SDS011;73248;52.398;9.814;2024-02-21T09:14:30;24.50;;;8.45;;
30533;SDS011;73248;52.398;9.814;2024-02-21T09:16:57;21.63;;;8.25;;
30533;SDS011;73248;52.398;9.814;2024-02-21T09:19:22;17.38;;;7.35;;
30533;SDS011;73248;52.398;9.814;2024-02-21T09:21:48;19.30;;;7.45;;
30533;SDS011;73248;52.398;9.814;2024-02-21T09:24:14;19.55;;;7.35;;
30533;SDS011;73248;52.398;9.814;2024-02-21T09:26:39;16.90;;;7.20;;
30533;SDS011;73248;52.398;9.814;2024-02-21T09:29:05;18.65;;;7.13;;
30533;SDS011;73248;52.398;9.814;2024-02-21T09:31:31;19.52;;;6.90;;
30533;SDS011;73248;52.398;9.814;2024-02-21T09:33:56;15.73;;;6.63;;
30533;SDS011;73248;52.398;9.814;2024-02-21T09:36:22;14.00;;;6.63;;
30533;SDS011;73248;52.398;9.814;2024-02-21T09:38:48;14.45;;;6.53;;
30533;SDS011;73248;52.398;9.814;2024-02-21T09:41:17;16.77;;;7.03;;
30533;SDS011;73248;52.398;9.814;2024-02-21T09:43:44;14.82;;;6.72;;
30533;SDS011;73248;52.398;9.814;2024-02-21T09:46:16;17.75;;;6.72;;
30533;SDS011;73248;52.398;9.814;2024-02-21T09:51:37;13.20;;;5.80;;
30533;SDS011;73248;52.398;9.814;2024-02-21T09:54:03;18.45;;;5.97;;
30533;SDS011;73248;52.398;9.814;2024-02-21T09:56:29;27.48;;;6.07;;
30533;SDS011;73248;52.398;9.814;2024-02-21T09:58:55;13.05;;;5.88;;
30533;SDS011;73248;52.398;9.814;2024-02-21T10:01:22;14.73;;;5.88;;
30533;SDS011;73248;52.398;9.814;2024-02-21T10:03:48;14.95;;;4.90;;
30533;SDS011;73248;52.398;9.814;2024-02-21T10:06:14;15.80;;;6.05;;
30533;SDS011;73248;52.398;9.814;2024-02-21T10:08:40;13.27;;;5.25;;
30533;SDS011;73248;52.398;9.814;2024-02-21T10:11:05;14.43;;;6.18;;
30533;SDS011;73248;52.398;9.814;2024-02-21T10:13:34;14.23;;;5.75;;
30533;SDS011;73248;52.398;9.814;2024-02-21T10:16:03;14.75;;;5.53;;
30533;SDS011;73248;52.398;9.814;2024-02-21T10:18:29;17.63;;;5.10;;
30533;SDS011;73248;52.398;9.814;2024-02-21T10:21:05;11.45;;;4.85;;
30533;SDS011;73248;52.398;9.814;2024-02-21T10:23:48;8.85;;;3.90;;
30533;SDS011;73248;52.398;9.814;2024-02-21T10:26:14;14.57;;;4.45;;
30533;SDS011;73248;52.398;9.814;2024-02-21T10:28:42;12.10;;;3.97;;
30533;SDS011;73248;52.398;9.814;2024-02-21T10:31:10;7.78;;;3.70;;
30533;SDS011;73248;52.398;9.814;2024-02-21T10:33:36;12.40;;;3.95;;
30533;SDS011;73248;52.398;9.814;2024-02-21T10:36:09;9.02;;;3.60;;
30533;SDS011;73248;52.398;9.814;2024-02-21T10:38:36;10.07;;;4.53;;
30533;SDS011;73248;52.398;9.814;2024-02-21T10:41:03;12.90;;;3.88;;
30533;SDS011;73248;52.398;9.814;2024-02-21T10:43:30;14.23;;;4.15;;
30533;SDS011;73248;52.398;9.814;2024-02-21T10:46:06;15.02;;;3.78;;
30533;SDS011;73248;52.398;9.814;2024-02-21T10:48:38;13.32;;;3.88;;
30533;SDS011;73248;52.398;9.814;2024-02-21T10:51:15;12.65;;;3.47;;
30533;SDS011;73248;52.398;9.814;2024-02-21T10:56:29;7.28;;;2.42;;
30533;SDS011;73248;52.398;9.814;2024-02-21T10:59:00;15.38;;;3.08;;
30533;SDS011;73248;52.398;9.814;2024-02-21T11:01:28;12.17;;;3.57;;
30533;SDS011;73248;52.398;9.814;2024-02-21T11:03:56;10.73;;;3.25;;
30533;SDS011;73248;52.398;9.814;2024-02-21T11:06:24;7.05;;;2.83;;
30533;SDS011;73248;52.398;9.814;2024-02-21T11:09:02;9.77;;;2.78;;
30533;SDS011;73248;52.398;9.814;2024-02-21T11:11:29;10.27;;;2.97;;
30533;SDS011;73248;52.398;9.814;2024-02-21T11:14:04;7.72;;;2.63;;
30533;SDS011;73248;52.398;9.814;2024-02-21T11:16:37;11.00;;;3.17;;
30533;SDS011;73248;52.398;9.814;2024-02-21T11:19:08;11.93;;;3.13;;
30533;SDS011;73248;52.398;9.814;2024-02-21T11:21:36;13.07;;;2.63;;
30533;SDS011;73248;52.398;9.814;2024-02-21T11:24:03;10.77;;;2.40;;
30533;SDS011;73248;52.398;9.814;2024-02-21T11:26:29;8.67;;;2.87;;
30533;SDS011;73248;52.398;9.814;2024-02-21T11:28:56;8.68;;;2.70;;
30533;SDS011;73248;52.398;9.814;2024-02-21T11:31:27;19.48;;;2.90;;
30533;SDS011;73248;52.398;9.814;2024-02-21T11:34:12;9.50;;;2.58;;
30533;SDS011;73248;52.398;9.814;2024-02-21T11:36:51;10.07;;;3.92;;
30533;SDS011;73248;52.398;9.814;2024-02-21T11:39:26;9.65;;;2.47;;
30533;SDS011;73248;52.398;9.814;2024-02-21T11:42:05;7.05;;;2.60;;
30533;SDS011;73248;52.398;9.814;2024-02-21T11:44:35;7.05;;;2.65;;
30533;SDS011;73248;52.398;9.814;2024-02-21T11:47:05;7.70;;;2.50;;
30533;SDS011;73248;52.398;9.814;2024-02-21T11:49:36;6.25;;;2.03;;
30533;SDS011;73248;52.398;9.814;2024-02-21T11:52:04;8.43;;;2.40;;
30533;SDS011;73248;52.398;9.814;2024-02-21T11:54:30;10.55;;;2.90;;
30533;SDS011;73248;52.398;9.814;2024-02-21T11:56:56;8.13;;;2.33;;
30533;SDS011;73248;52.398;9.814;2024-02-21T11:59:22;3.47;;;1.95;;
30533;SDS011;73248;52.398;9.814;2024-02-21T12:01:48;11.93;;;2.92;;
30533;SDS011;73248;52.398;9.814;2024-02-21T12:04:15;3.58;;;1.75;;
30533;SDS011;73248;52.398;9.814;2024-02-21T12:06:42;7.32;;;2.50;;
30533;SDS011;73248;52.398;9.814;2024-02-21T12:11:38;9.15;;;2.13;;
30533;SDS011;73248;52.398;9.814;2024-02-21T12:14:04;6.38;;;2.10;;
30533;SDS011;73248;52.398;9.814;2024-02-21T12:16:33;11.30;;;2.67;;
30533;SDS011;73248;52.398;9.814;2024-02-21T12:18:59;8.02;;;2.30;;
30533;SDS011;73248;52.398;9.814;2024-02-21T12:21:26;11.13;;;2.35;;
30533;SDS011;73248;52.398;9.814;2024-02-21T12:23:54;6.57;;;2.45;;
30533;SDS011;73248;52.398;9.814;2024-02-21T12:26:20;8.93;;;2.90;;
30533;SDS011;73248;52.398;9.814;2024-02-21T12:28:46;11.68;;;3.15;;
30533;SDS011;73248;52.398;9.814;2024-02-21T12:31:12;6.43;;;2.85;;
30533;SDS011;73248;52.398;9.814;2024-02-21T12:33:38;6.32;;;2.38;;
30533;SDS011;73248;52.398;9.814;2024-02-21T12:36:04;11.98;;;2.85;;
30533;SDS011;73248;52.398;9.814;2024-02-21T12:38:29;10.43;;;2.70;;
30533;SDS011;73248;52.398;9.814;2024-02-21T12:40:55;8.23;;;2.47;;
30533;SDS011;73248;52.398;9.814;2024-02-21T12:43:22;7.45;;;3.08;;
30533;SDS011;73248;52.398;9.814;2024-02-21T12:45:48;8.48;;;3.00;;
30533;SDS011;73248;52.398;9.814;2024-02-21T12:48:14;9.93;;;3.25;;
30533;SDS011;73248;52.398;9.814;2024-02-21T12:50:41;11.88;;;3.25;;
30533;SDS011;73248;52.398;9.814;2024-02-21T12:53:14;9.85;;;3.17;;
30533;SDS011;73248;52.398;9.814;2024-02-21T12:55:41;6.78;;;3.22;;
30533;SDS011;73248;52.398;9.814;2024-02-21T12:58:06;8.27;;;3.13;;
30533;SDS011;73248;52.398;9.814;2024-02-21T13:00:32;10.18;;;3.85;;
30533;SDS011;73248;52.398;9.814;2024-02-21T13:02:58;11.43;;;3.50;;
30533;SDS011;73248;52.398;9.814;2024-02-21T13:05:24;9.20;;;4.40;;
30533;SDS011;73248;52.398;9.814;2024-02-21T13:07:49;17.05;;;5.63;;
30533;SDS011;73248;52.398;9.814;2024-02-21T13:10:15;13.38;;;4.45;;
30533;SDS011;73248;52.398;9.814;2024-02-21T13:12:40;13.85;;;4.07;;
30533;SDS011;73248;52.398;9.814;2024-02-21T13:15:06;8.48;;;4.45;;
30533;SDS011;73248;52.398;9.814;2024-02-21T13:17:33;11.63;;;4.72;;
30533;SDS011;73248;52.398;9.814;2024-02-21T13:19:59;13.27;;;4.43;;
30533;SDS011;73248;52.398;9.814;2024-02-21T13:22:25;10.18;;;4.90;;
30533;SDS011;73248;52.398;9.814;2024-02-21T13:24:51;11.45;;;4.90;;
30533;SDS011;73248;52.398;9.814;2024-02-21T13:27:17;13.52;;;5.35;;
30533;SDS011;73248;52.398;9.814;2024-02-21T13:29:43;13.20;;;5.03;;
30533;SDS011;73248;52.398;9.814;2024-02-21T13:32:08;16.15;;;5.15;;
30533;SDS011;73248;52.398;9.814;2024-02-21T13:34:34;10.25;;;4.30;;
30533;SDS011;73248;52.398;9.814;2024-02-21T13:36:59;13.20;;;4.90;;
30533;SDS011;73248;52.398;9.814;2024-02-21T13:39:25;10.75;;;4.30;;
30533;SDS011;73248;52.398;9.814;2024-02-21T13:41:50;8.18;;;4.30;;
30533;SDS011;73248;52.398;9.814;2024-02-21T13:44:16;13.25;;;5.30;;
30533;SDS011;73248;52.398;9.814;2024-02-21T13:46:42;11.13;;;4.30;;
30533;SDS011;73248;52.398;9.814;2024-02-21T13:49:07;8.23;;;4.22;;
30533;SDS011;73248;52.398;9.814;2024-02-21T13:51:33;9.73;;;4.55;;
30533;SDS011;73248;52.398;9.814;2024-02-21T13:54:02;11.95;;;4.55;;
30533;SDS011;73248;52.398;9.814;2024-02-21T13:56:29;11.70;;;4.70;;
30533;SDS011;73248;52.398;9.814;2024-02-21T13:58:55;12.07;;;4.15;;
30533;SDS011;73248;52.398;9.814;2024-02-21T14:01:22;11.43;;;3.80;;
30533;SDS011;73248;52.398;9.814;2024-02-21T14:03:48;10.80;;;4.03;;
30533;SDS011;73248;52.398;9.814;2024-02-21T14:06:13;9.13;;;4.13;;
30533;SDS011;73248;52.398;9.814;2024-02-21T14:08:39;12.10;;;4.15;;
30533;SDS011;73248;52.398;9.814;2024-02-21T14:11:05;9.68;;;3.50;;
30533;SDS011;73248;52.398;9.814;2024-02-21T14:13:32;9.40;;;3.63;;
30533;SDS011;73248;52.398;9.814;2024-02-21T14:15:57;8.18;;;3.03;;
30533;SDS011;73248;52.398;9.814;2024-02-21T14:18:23;12.00;;;2.78;;
30533;SDS011;73248;52.398;9.814;2024-02-21T14:20:48;6.15;;;2.50;;
30533;SDS011;73248;52.398;9.814;2024-02-21T14:23:14;9.85;;;2.70;;
30533;SDS011;73248;52.398;9.814;2024-02-21T14:25:40;6.22;;;2.42;;
30533;SDS011;73248;52.398;9.814;2024-02-21T14:28:07;7.97;;;2.15;;
30533;SDS011;73248;52.398;9.814;2024-02-21T14:30:34;11.05;;;2.40;;
30533;SDS011;73248;52.398;9.814;2024-02-21T14:33:00;5.30;;;2.30;;